VTBD Airport Information

Runway Information
Runway 03L Length 12139 ft width 197 ft
Elevation 7 ft Threshold 0 ft Heading 29
Runway 21R Length 12139 ft Width 197 ft
Elevation 7 ft Threshold 0 ft Heading 209
Runway 03R Length 11483 ft width 148 ft
Elevation 7 ft Threshold 0 ft Heading 29
Runway 21L Length 11483 ft Width 148 ft
Elevation 8 ft Threshold 1148 ft Heading 209
Airport Frequencies
Type APP Name APP Frequency 119.4 MHZ
Type ARR Name ARR Frequency 125.5 MHZ
Type ATIS Name ATIS Frequency 126.4 MHZ
Type CLD Name CLNC DEL Frequency 125.95 MHZ
Type GND Name GND Frequency 121.9 MHZ
Type TWR Name TWR Frequency 118.1 MHZ
Airport Navaids
Type NDB Name Bangkok Frequency 293 KHZ
Type VOR-DME Name Bangkok Frequency 117700 KHZ
Airport Weather Information & NOTAM
ADDS - METARS form results

(1456 UTC 22 July 2018)
 
METAR text: VTBD 221430Z 00000KT 9999 FEW020 SCT100 28/26 Q1007 NOSIG
Conditions at: VTBD (BANGKOK/DON MUAN, TH) observed 1430 UTC 22 July 2018
Temperature: 28.0°C (82°F)
Dewpoint: 26.0°C (79°F) [RH = 89%]
Pressure (altimeter): 29.73 inches Hg (1007.0 mb)
Winds: calm
Visibility: 6 or more miles (10+ km)
Ceiling: at least 12,000 feet AGL
Clouds: few clouds at 2000 feet AGL
scattered clouds at 10000 feet AGL
Weather: no significant weather observed at this time

METAR text: VTBD 221400Z 19002KT 9999 FEW020 SCT100 28/26 Q1007 NOSIG
Conditions at: VTBD (BANGKOK/DON MUAN, TH) observed 1400 UTC 22 July 2018
Temperature: 28.0°C (82°F)
Dewpoint: 26.0°C (79°F) [RH = 89%]
Pressure (altimeter): 29.73 inches Hg (1007.0 mb)
Winds: from the S (190 degrees) at 2 MPH (2 knots; 1.0 m/s)
Visibility: 6 or more miles (10+ km)
Ceiling: at least 12,000 feet AGL
Clouds: few clouds at 2000 feet AGL
scattered clouds at 10000 feet AGL
Weather: no significant weather observed at this time